createdAt,value
2023-03-29T00:00:56.762Z,44.73
2023-03-29T00:01:56.848Z,44.73
2023-03-29T00:02:56.968Z,44.63
2023-03-29T00:03:56.832Z,44.63
2023-03-29T00:04:56.793Z,44.63
2023-03-29T00:05:56.865Z,44.63
2023-03-29T00:06:56.850Z,44.73
2023-03-29T00:07:56.865Z,44.63
2023-03-29T00:08:56.883Z,44.63
2023-03-29T00:09:56.897Z,44.63
2023-03-29T00:10:56.932Z,44.63
2023-03-29T00:11:56.904Z,44.63
2023-03-29T00:12:56.917Z,44.63
2023-03-29T00:13:56.940Z,44.63
2023-03-29T00:14:56.952Z,44.63
2023-03-29T00:15:56.981Z,44.63
2023-03-29T00:16:57.023Z,44.63
2023-03-29T00:17:57.041Z,44.63
2023-03-29T00:18:57.015Z,44.63
2023-03-29T00:19:57.048Z,44.63
2023-03-29T00:20:57.030Z,44.73
2023-03-29T00:21:57.083Z,44.63
2023-03-29T00:22:57.058Z,44.53
2023-03-29T00:23:57.042Z,44.63
2023-03-29T00:24:57.069Z,44.63
2023-03-29T00:25:57.099Z,44.63
2023-03-29T00:26:57.083Z,44.73
2023-03-29T00:27:57.059Z,44.63
2023-03-29T00:28:57.087Z,44.63
2023-03-29T00:29:57.110Z,44.73
2023-03-29T00:30:57.178Z,44.73
2023-03-29T00:31:57.177Z,44.63
2023-03-29T00:32:57.220Z,44.63
2023-03-29T00:33:57.161Z,44.63
2023-03-29T00:34:57.179Z,44.63
2023-03-29T00:35:57.284Z,44.63
2023-03-29T00:36:57.328Z,44.63
2023-03-29T00:37:57.238Z,44.73
2023-03-29T00:38:57.222Z,44.63
2023-03-29T00:39:57.232Z,44.73
2023-03-29T00:40:57.263Z,44.73
2023-03-29T00:41:57.290Z,44.73
2023-03-29T00:42:57.322Z,44.73
2023-03-29T00:43:57.307Z,44.63
2023-03-29T00:44:57.321Z,44.63
2023-03-29T00:45:57.378Z,44.73
2023-03-29T00:46:57.361Z,44.73
2023-03-29T00:47:57.684Z,44.63
2023-03-29T00:48:57.370Z,44.73
2023-03-29T00:49:57.416Z,44.63
2023-03-29T00:50:57.386Z,44.73
2023-03-29T00:51:57.400Z,44.73
2023-03-29T00:52:57.417Z,44.73
2023-03-29T00:53:57.456Z,44.73
2023-03-29T00:54:57.446Z,44.73
2023-03-29T00:55:57.437Z,44.73
2023-03-29T00:56:57.481Z,44.73
2023-03-29T00:57:57.499Z,44.73
2023-03-29T00:58:57.473Z,44.63
2023-03-29T00:59:57.482Z,44.73
2023-03-29T01:00:57.509Z,44.73
2023-03-29T01:01:57.546Z,44.73
2023-03-29T01:02:57.576Z,44.73
2023-03-29T01:03:57.522Z,44.63
2023-03-29T01:04:57.491Z,44.73
2023-03-29T01:05:57.514Z,44.73
2023-03-29T01:06:57.590Z,44.73
2023-03-29T01:07:57.565Z,44.73
2023-03-29T01:08:57.577Z,44.83
2023-03-29T01:09:57.626Z,44.73
2023-03-29T01:10:57.633Z,44.73
2023-03-29T01:11:57.610Z,44.73
2023-03-29T01:12:57.632Z,44.73
2023-03-29T01:13:57.660Z,44.73
2023-03-29T01:14:57.690Z,44.63
2023-03-29T01:15:57.731Z,44.73
2023-03-29T01:16:57.719Z,44.73
2023-03-29T01:17:57.786Z,44.63
2023-03-29T01:18:57.726Z,44.63
2023-03-29T01:19:57.765Z,44.63
2023-03-29T01:20:57.776Z,44.63
2023-03-29T01:21:57.793Z,44.73
2023-03-29T01:22:57.827Z,44.73
2023-03-29T01:23:57.841Z,44.73
2023-03-29T01:24:57.866Z,44.73
2023-03-29T01:25:57.910Z,44.73
2023-03-29T01:26:57.877Z,44.73
2023-03-29T01:27:57.937Z,44.63
2023-03-29T01:28:57.931Z,44.73
2023-03-29T01:29:57.955Z,44.73
2023-03-29T01:30:57.968Z,44.73
2023-03-29T01:31:58.110Z,44.63
2023-03-29T01:32:58.070Z,44.73
2023-03-29T01:33:58.004Z,44.73
2023-03-29T01:34:58.025Z,44.73
2023-03-29T01:35:58.054Z,44.73
2023-03-29T01:36:58.034Z,44.73
2023-03-29T01:37:58.063Z,44.73
2023-03-29T01:38:58.309Z,44.83
2023-03-29T01:39:58.093Z,44.73
2023-03-29T01:40:58.125Z,44.63
2023-03-29T01:41:58.156Z,44.73
2023-03-29T01:42:58.141Z,44.53
2023-03-29T01:43:58.155Z,44.53
2023-03-29T01:44:58.192Z,44.63
2023-03-29T01:45:58.330Z,44.73
2023-03-29T01:46:58.225Z,44.73
2023-03-29T01:47:58.261Z,44.63
2023-03-29T01:48:58.253Z,44.63
2023-03-29T01:49:58.285Z,44.63
2023-03-29T01:50:58.311Z,44.63
2023-03-29T01:51:58.327Z,44.83
2023-03-29T01:52:58.354Z,44.73
2023-03-29T01:53:58.356Z,44.73
2023-03-29T01:54:58.375Z,44.73
2023-03-29T01:55:58.396Z,44.73
2023-03-29T01:56:58.493Z,44.73
2023-03-29T01:57:58.482Z,44.73
2023-03-29T01:58:58.451Z,44.73
2023-03-29T01:59:58.484Z,44.73
2023-03-29T02:00:58.531Z,44.73
2023-03-29T02:01:58.591Z,44.83
2023-03-29T02:02:58.573Z,44.73
2023-03-29T02:03:58.534Z,44.73
2023-03-29T02:04:58.554Z,44.73
2023-03-29T02:05:58.576Z,44.73
2023-03-29T02:06:58.556Z,44.63
2023-03-29T02:07:58.566Z,44.73
2023-03-29T02:08:58.597Z,44.73
2023-03-29T02:09:58.594Z,44.73
2023-03-29T02:10:58.629Z,44.73
2023-03-29T02:11:58.601Z,44.73
2023-03-29T02:12:58.704Z,44.73
2023-03-29T02:13:58.667Z,44.73
2023-03-29T02:14:58.642Z,44.73
2023-03-29T02:15:58.723Z,44.73
2023-03-29T02:16:58.655Z,44.73
2023-03-29T02:17:58.752Z,44.83
2023-03-29T02:18:58.715Z,44.73
2023-03-29T02:19:58.683Z,44.73
2023-03-29T02:20:58.902Z,44.73
2023-03-29T02:21:58.718Z,44.83
2023-03-29T02:22:58.760Z,44.73
2023-03-29T02:23:58.729Z,44.73
2023-03-29T02:24:58.740Z,44.83
2023-03-29T02:25:58.788Z,44.83
2023-03-29T02:26:58.767Z,44.73
2023-03-29T02:27:58.775Z,44.83
2023-03-29T02:28:58.796Z,44.73
2023-03-29T02:29:58.852Z,44.83
2023-03-29T02:30:58.966Z,44.73
2023-03-29T02:31:58.855Z,44.83
2023-03-29T02:32:58.888Z,44.83
2023-03-29T02:33:58.884Z,44.83
2023-03-29T02:34:58.910Z,44.73
2023-03-29T02:35:58.911Z,44.73
2023-03-29T02:36:58.917Z,44.83
2023-03-29T02:37:58.889Z,44.73
2023-03-29T02:38:58.915Z,44.83
2023-03-29T02:39:58.943Z,44.83
2023-03-29T02:40:59.088Z,44.83
2023-03-29T02:41:58.935Z,44.93
2023-03-29T02:42:58.945Z,44.83
2023-03-29T02:43:58.976Z,44.73
2023-03-29T02:44:58.988Z,44.83
2023-03-29T02:45:59.032Z,44.93
2023-03-29T02:46:59.091Z,44.83
2023-03-29T02:47:59.103Z,44.83
2023-03-29T02:48:59.085Z,45.05
2023-03-29T02:49:59.116Z,44.95
2023-03-29T02:50:59.254Z,44.93
2023-03-29T02:51:59.081Z,45.05
2023-03-29T02:52:59.105Z,45.05
2023-03-29T02:53:59.127Z,45.03
2023-03-29T02:54:59.149Z,44.93
2023-03-29T02:55:59.188Z,44.93
2023-03-29T02:56:59.230Z,44.93
2023-03-29T02:57:59.228Z,45.03
2023-03-29T02:58:59.261Z,44.93
2023-03-29T02:59:59.251Z,44.83
2023-03-29T03:00:59.558Z,44.83
2023-03-29T03:01:59.425Z,44.83
2023-03-29T03:03:01.404Z,44.83
2023-03-29T03:03:59.450Z,44.93
2023-03-29T03:04:59.350Z,44.95
2023-03-29T03:05:59.375Z,45.03
2023-03-29T03:06:59.396Z,45.05
2023-03-29T03:07:59.413Z,45.05
2023-03-29T03:08:59.443Z,45.15
2023-03-29T03:09:59.470Z,45.05
2023-03-29T03:10:59.942Z,44.95
2023-03-29T03:11:59.491Z,44.93
2023-03-29T03:12:59.692Z,45.03
2023-03-29T03:13:59.482Z,45.05
2023-03-29T03:14:59.530Z,45.03
2023-03-29T03:15:59.522Z,45.03
2023-03-29T03:17:01.200Z,45.05
2023-03-29T03:17:59.583Z,45.03
2023-03-29T03:18:59.526Z,45.03
2023-03-29T03:19:59.568Z,45.03
2023-03-29T03:20:59.736Z,45.15
2023-03-29T03:21:59.539Z,45.25
2023-03-29T03:22:59.528Z,45.03
2023-03-29T03:23:59.545Z,44.93
2023-03-29T03:24:59.598Z,45.03
2023-03-29T03:25:59.570Z,45.05
2023-03-29T03:26:59.592Z,45.25
2023-03-29T03:27:59.572Z,45.25
2023-03-29T03:28:59.599Z,45.15
2023-03-29T03:29:59.639Z,45.15
2023-03-29T03:30:59.908Z,45.13
2023-03-29T03:31:59.703Z,45.05
2023-03-29T03:32:59.693Z,45.15
2023-03-29T03:33:59.668Z,45.15
2023-03-29T03:34:59.681Z,45.05
2023-03-29T03:35:59.739Z,45.15
2023-03-29T03:36:59.683Z,45.15
2023-03-29T03:37:59.706Z,45.15
2023-03-29T03:38:59.725Z,45.15
2023-03-29T03:39:59.743Z,45.15
2023-03-29T03:41:00.145Z,45.03
2023-03-29T03:41:59.763Z,45.03
2023-03-29T03:42:59.797Z,45.15
2023-03-29T03:43:59.827Z,45.15
2023-03-29T03:44:59.826Z,45.03
2023-03-29T03:45:59.923Z,45.03
2023-03-29T03:46:59.887Z,45.03
2023-03-29T03:48:00.005Z,45.15
2023-03-29T03:48:59.926Z,45.15
2023-03-29T03:49:59.975Z,45.15
2023-03-29T03:51:00.048Z,45.05
2023-03-29T03:51:59.961Z,45.15
2023-03-29T03:52:59.987Z,45.15
2023-03-29T03:53:59.965Z,45.05
2023-03-29T03:54:59.997Z,45.15
2023-03-29T03:55:59.975Z,45.15
2023-03-29T03:57:00.039Z,45.15
2023-03-29T03:58:00.040Z,45.15
2023-03-29T03:59:00.040Z,45.05
2023-03-29T04:00:00.122Z,45.05
2023-03-29T04:01:00.244Z,45.05
2023-03-29T04:02:00.245Z,45.03
2023-03-29T04:03:00.386Z,44.93
2023-03-29T04:04:00.258Z,45.05
2023-03-29T04:05:00.138Z,45.15
2023-03-29T04:06:00.144Z,45.05
2023-03-29T04:07:00.106Z,45.15
2023-03-29T04:08:00.139Z,45.25
2023-03-29T04:09:00.152Z,45.15
2023-03-29T04:10:00.181Z,45.13
2023-03-29T04:11:00.453Z,45.13
2023-03-29T04:12:00.217Z,45.13
2023-03-29T04:13:00.236Z,45.13
2023-03-29T04:14:00.257Z,45.15
2023-03-29T04:15:00.277Z,45.13
2023-03-29T04:16:01.679Z,45.15
2023-03-29T04:17:00.311Z,45.13
2023-03-29T04:18:00.422Z,45.13
2023-03-29T04:19:00.366Z,45.13
2023-03-29T04:20:00.329Z,45.13
2023-03-29T04:21:00.556Z,45.13
2023-03-29T04:22:00.339Z,45.15
2023-03-29T04:23:00.323Z,45.13
2023-03-29T04:24:00.302Z,45.15
2023-03-29T04:25:00.318Z,45.15
2023-03-29T04:26:00.337Z,45.25
2023-03-29T04:27:00.351Z,45.25
2023-03-29T04:28:00.376Z,45.25
2023-03-29T04:29:00.391Z,45.25
2023-03-29T04:30:00.395Z,45.25
2023-03-29T04:31:00.584Z,45.25
2023-03-29T04:32:00.432Z,45.23
2023-03-29T04:33:00.481Z,45.13
2023-03-29T04:34:00.658Z,45.15
2023-03-29T04:35:00.492Z,45.25
2023-03-29T04:36:00.527Z,45.13
2023-03-29T04:37:00.507Z,45.13
2023-03-29T04:38:00.515Z,45.13
2023-03-29T04:39:00.502Z,45.13
2023-03-29T04:40:00.468Z,45.13
2023-03-29T04:41:00.720Z,45.15
2023-03-29T04:42:00.524Z,45.25
2023-03-29T04:43:00.555Z,45.25
2023-03-29T04:44:00.544Z,45.25
2023-03-29T04:45:00.571Z,45.25
2023-03-29T04:46:00.570Z,45.25
2023-03-29T04:47:00.568Z,45.25
2023-03-29T04:48:00.614Z,45.25
2023-03-29T04:49:00.625Z,45.25
2023-03-29T04:50:00.657Z,45.25
2023-03-29T04:51:00.951Z,45.25
2023-03-29T04:52:00.675Z,45.23
2023-03-29T04:53:00.702Z,45.25
2023-03-29T04:54:00.785Z,45.15
2023-03-29T04:55:00.759Z,45.25
2023-03-29T04:56:00.756Z,45.25
2023-03-29T04:57:00.823Z,45.23
2023-03-29T04:58:00.821Z,45.13
2023-03-29T04:59:00.851Z,45.25
2023-03-29T05:00:00.826Z,45.25
2023-03-29T05:02:26.759Z,45.25
2023-03-29T05:03:26.729Z,45.25
2023-03-29T05:04:26.827Z,45.23
2023-03-29T05:05:26.767Z,45.13
2023-03-29T05:06:26.795Z,45.23
2023-03-29T05:07:26.771Z,45.13
2023-03-29T05:08:26.797Z,45.13
2023-03-29T05:09:26.852Z,45.23
2023-03-29T05:10:26.827Z,45.23
2023-03-29T05:11:26.845Z,45.23
2023-03-29T05:12:26.881Z,45.13
2023-03-29T05:13:26.865Z,45.25
2023-03-29T05:14:26.902Z,45.13
2023-03-29T05:15:26.896Z,45.35
2023-03-29T05:16:26.952Z,45.55
2023-03-29T05:17:26.968Z,45.75
2023-03-29T05:18:26.954Z,45.95
2023-03-29T05:19:26.976Z,46.26
2023-03-29T05:20:27.005Z,46.26
2023-03-29T05:21:27.076Z,46.36
2023-03-29T05:22:27.053Z,46.26
2023-03-29T05:23:27.084Z,46.06
2023-03-29T05:24:27.076Z,46.06
2023-03-29T05:25:27.103Z,46.08
2023-03-29T05:26:27.089Z,45.87
2023-03-29T05:27:27.108Z,45.87
2023-03-29T05:28:27.155Z,45.78
2023-03-29T05:29:27.184Z,45.57
2023-03-29T05:30:27.182Z,45.27
2023-03-29T05:31:27.174Z,45.07
2023-03-29T05:32:27.265Z,44.97
2023-03-29T05:33:27.206Z,44.67
2023-03-29T05:34:27.229Z,44.57
2023-03-29T05:35:27.267Z,44.47
2023-03-29T05:36:27.281Z,44.47
2023-03-29T05:37:27.256Z,44.37
2023-03-29T05:38:27.291Z,44.47
2023-03-29T05:39:27.314Z,44.37
2023-03-29T05:40:27.329Z,44.37
2023-03-29T05:41:27.347Z,44.37
2023-03-29T05:42:27.328Z,44.37
2023-03-29T05:43:27.372Z,44.37
2023-03-29T05:44:27.360Z,44.17
2023-03-29T05:45:27.391Z,44.17
2023-03-29T05:46:27.417Z,43.96
2023-03-29T05:47:27.423Z,43.96
2023-03-29T05:48:27.424Z,43.76
2023-03-29T05:49:27.413Z,43.64
2023-03-29T05:50:27.440Z,43.54
2023-03-29T05:51:27.488Z,43.54
2023-03-29T05:52:27.478Z,43.64
2023-03-29T05:53:27.533Z,43.54
2023-03-29T05:54:27.533Z,43.54
2023-03-29T05:55:27.513Z,43.34
2023-03-29T05:56:27.498Z,43.32
2023-03-29T05:57:27.562Z,43.22
2023-03-29T05:58:27.505Z,43.12
2023-03-29T05:59:27.556Z,43.22
2023-03-29T06:00:27.538Z,43.34
2023-03-29T06:01:27.525Z,43.32
2023-03-29T06:02:27.689Z,43.24
2023-03-29T06:03:27.800Z,43.34
2023-03-29T06:04:27.704Z,43.32
2023-03-29T06:05:27.570Z,43.42
2023-03-29T06:06:27.569Z,43.32
2023-03-29T06:07:27.575Z,43.22
2023-03-29T06:08:27.583Z,43.22
2023-03-29T06:09:27.570Z,43.12
2023-03-29T06:10:27.651Z,43.22
2023-03-29T06:11:27.578Z,43.22
2023-03-29T06:12:27.582Z,43.32
2023-03-29T06:13:27.602Z,43.42
2023-03-29T06:14:27.589Z,43.22
2023-03-29T06:15:27.594Z,43.22
2023-03-29T06:16:27.651Z,43.22
2023-03-29T06:17:27.632Z,43.10
2023-03-29T06:18:27.637Z,43.10
2023-03-29T06:19:27.661Z,43.10
2023-03-29T06:20:27.704Z,42.80
2023-03-29T06:21:27.730Z,42.90
2023-03-29T06:22:27.754Z,43.00
2023-03-29T06:23:27.859Z,42.90
2023-03-29T06:24:27.807Z,43.00
2023-03-29T06:25:27.800Z,43.10
2023-03-29T06:26:27.852Z,43.10
2023-03-29T06:27:27.813Z,43.40
2023-03-29T06:28:27.791Z,43.38
2023-03-29T06:29:27.810Z,43.18
2023-03-29T06:30:27.851Z,43.28
2023-03-29T06:31:27.911Z,43.18
2023-03-29T06:32:27.891Z,43.18
2023-03-29T06:33:27.847Z,43.18
2023-03-29T06:34:27.877Z,43.18
2023-03-29T06:35:30.154Z,43.28
2023-03-29T06:36:27.914Z,43.28
2023-03-29T06:37:27.968Z,43.28
2023-03-29T06:38:27.959Z,43.36
2023-03-29T06:39:28.003Z,43.26
2023-03-29T06:40:27.997Z,43.46
2023-03-29T06:41:28.026Z,43.36
2023-03-29T06:42:28.024Z,43.46
2023-03-29T06:43:28.036Z,43.46
2023-03-29T06:44:28.028Z,43.46
2023-03-29T06:45:29.325Z,43.46
2023-03-29T06:46:28.126Z,43.36
2023-03-29T06:47:28.120Z,43.36
2023-03-29T06:48:28.065Z,43.36
2023-03-29T06:49:28.063Z,43.46
2023-03-29T06:50:28.095Z,43.46
2023-03-29T06:51:28.098Z,43.56
2023-03-29T06:52:28.136Z,43.44
2023-03-29T06:53:28.146Z,43.44
2023-03-29T06:54:28.138Z,43.34
2023-03-29T06:55:28.126Z,43.34
2023-03-29T06:56:28.161Z,43.34
2023-03-29T06:57:28.235Z,43.34
2023-03-29T06:58:28.188Z,43.34
2023-03-29T06:59:28.226Z,43.44
2023-03-29T07:00:28.469Z,43.44
2023-03-29T07:01:28.344Z,43.54
2023-03-29T07:02:28.297Z,43.44
2023-03-29T07:03:28.299Z,43.54
2023-03-29T07:04:28.390Z,43.64
2023-03-29T07:05:28.298Z,43.64
2023-03-29T07:06:28.334Z,43.54
2023-03-29T07:07:28.317Z,43.54
2023-03-29T07:08:28.354Z,43.54
2023-03-29T07:09:28.391Z,43.54
2023-03-29T07:10:28.416Z,43.64
2023-03-29T07:11:28.463Z,43.54
2023-03-29T07:12:28.448Z,43.64
2023-03-29T07:13:28.469Z,43.74
2023-03-29T07:14:28.477Z,43.74
2023-03-29T07:15:28.485Z,43.64
2023-03-29T07:16:28.565Z,43.74
2023-03-29T07:17:28.543Z,43.64
2023-03-29T07:18:28.537Z,43.74
2023-03-29T07:19:28.526Z,43.74
2023-03-29T07:20:28.564Z,43.64
2023-03-29T07:21:28.614Z,43.74
2023-03-29T07:22:29.389Z,43.74
2023-03-29T07:23:28.594Z,43.74
2023-03-29T07:24:28.585Z,43.74
2023-03-29T07:25:28.610Z,43.84
2023-03-29T07:26:30.190Z,43.94
2023-03-29T07:27:28.853Z,43.84
2023-03-29T07:28:28.702Z,43.74
2023-03-29T07:29:28.659Z,43.74
2023-03-29T07:30:31.436Z,43.62
2023-03-29T07:31:28.670Z,43.62
2023-03-29T07:32:28.695Z,43.62
2023-03-29T07:33:28.775Z,43.52
2023-03-29T07:34:28.679Z,43.52
2023-03-29T07:35:28.702Z,43.32
2023-03-29T07:36:28.739Z,43.32
2023-03-29T07:37:28.776Z,43.30
2023-03-29T07:38:28.760Z,43.19
2023-03-29T07:39:28.807Z,43.19
2023-03-29T07:40:28.808Z,43.19
2023-03-29T07:41:28.838Z,43.19
2023-03-29T07:42:28.836Z,43.19
2023-03-29T07:43:28.813Z,43.19
2023-03-29T07:44:28.804Z,43.10
2023-03-29T07:45:29.056Z,43.10
2023-03-29T07:46:28.874Z,43.10
2023-03-29T07:47:28.900Z,43.10
2023-03-29T07:48:28.902Z,42.97
2023-03-29T07:49:29.084Z,42.97
2023-03-29T07:50:28.955Z,42.88
2023-03-29T07:51:28.956Z,42.97
2023-03-29T07:52:28.948Z,42.88
2023-03-29T07:53:28.946Z,42.88
2023-03-29T07:54:28.962Z,42.77
2023-03-29T07:55:29.003Z,42.88
2023-03-29T07:56:29.024Z,42.77
2023-03-29T07:57:29.152Z,42.77
2023-03-29T07:58:29.056Z,42.77
2023-03-29T07:59:29.085Z,42.77
2023-03-29T08:00:29.160Z,42.77
2023-03-29T08:01:29.215Z,42.77
2023-03-29T08:02:29.183Z,42.77
2023-03-29T08:03:29.210Z,42.77
2023-03-29T08:04:29.234Z,42.77
2023-03-29T08:05:40.171Z,42.77
2023-03-29T08:06:29.195Z,42.77
2023-03-29T08:07:29.191Z,42.77
2023-03-29T08:08:29.173Z,42.77
2023-03-29T08:09:29.161Z,42.77
2023-03-29T08:10:29.200Z,42.77
2023-03-29T08:11:29.221Z,42.77
2023-03-29T08:12:29.239Z,42.88
2023-03-29T08:13:29.272Z,42.97
2023-03-29T08:14:29.309Z,42.88
2023-03-29T08:15:29.318Z,42.88
2023-03-29T08:16:29.389Z,42.88
2023-03-29T08:17:29.347Z,42.88
2023-03-29T08:18:29.328Z,42.77
2023-03-29T08:19:29.344Z,42.88
2023-03-29T08:20:29.388Z,42.88
2023-03-29T08:21:29.390Z,42.77
2023-03-29T08:22:29.372Z,42.77
2023-03-29T08:23:29.481Z,42.76
2023-03-29T08:24:29.421Z,42.77
2023-03-29T08:25:29.460Z,42.88
2023-03-29T08:26:29.429Z,42.97
2023-03-29T08:27:29.450Z,42.85
2023-03-29T08:28:29.496Z,42.85
2023-03-29T08:29:29.477Z,42.85
2023-03-29T08:30:29.534Z,42.96
2023-03-29T08:31:29.550Z,43.18
2023-03-29T08:32:29.547Z,43.38
2023-03-29T08:33:29.528Z,43.48
2023-03-29T08:34:29.520Z,43.96
2023-03-29T08:35:29.530Z,44.66
2023-03-29T08:36:29.503Z,44.46
2023-03-29T08:37:29.542Z,43.98
2023-03-29T08:38:29.514Z,43.68
2023-03-29T08:39:29.509Z,43.48
2023-03-29T08:40:29.540Z,43.38
2023-03-29T08:41:29.548Z,43.38
2023-03-29T08:42:29.587Z,43.48
2023-03-29T08:43:29.579Z,43.27
2023-03-29T08:44:29.587Z,41.47
2023-03-29T08:45:29.584Z,39.89
2023-03-29T08:46:35.137Z,39.69
2023-03-29T08:47:29.638Z,39.49
2023-03-29T08:48:29.636Z,41.09
2023-03-29T08:49:29.661Z,41.60
2023-03-29T08:50:29.661Z,41.79
2023-03-29T08:51:29.730Z,41.89
2023-03-29T08:52:29.674Z,41.49
2023-03-29T08:53:29.732Z,41.39
2023-03-29T08:54:29.697Z,41.19
2023-03-29T08:55:29.687Z,40.99
2023-03-29T08:56:31.426Z,40.79
2023-03-29T08:57:29.735Z,40.69
2023-03-29T08:58:29.767Z,40.29
2023-03-29T08:59:29.823Z,40.37
2023-03-29T09:00:29.804Z,40.17
2023-03-29T09:01:29.867Z,40.07
2023-03-29T09:02:29.888Z,39.77
2023-03-29T09:03:29.939Z,39.47
2023-03-29T09:04:29.887Z,39.25
2023-03-29T09:05:29.890Z,38.95
2023-03-29T09:06:29.876Z,38.75
2023-03-29T09:07:29.893Z,38.55
2023-03-29T09:08:29.929Z,38.43
2023-03-29T09:09:30.020Z,38.23
2023-03-29T09:10:29.970Z,38.13
2023-03-29T09:11:29.963Z,38.03
2023-03-29T09:12:29.966Z,37.83
2023-03-29T09:13:30.040Z,37.63
2023-03-29T09:14:29.981Z,37.53
2023-03-29T09:15:29.972Z,37.43
2023-03-29T09:16:30.028Z,37.41
2023-03-29T09:17:30.056Z,37.41
2023-03-29T09:18:30.027Z,37.21
2023-03-29T09:19:30.026Z,37.21
2023-03-29T09:20:30.008Z,37.11
2023-03-29T09:21:30.055Z,37.01
2023-03-29T09:22:30.051Z,37.01
2023-03-29T09:23:30.036Z,36.91
2023-03-29T09:24:30.074Z,36.81
2023-03-29T09:25:30.086Z,36.81
2023-03-29T09:26:30.070Z,36.81
2023-03-29T09:27:30.108Z,36.81
2023-03-29T09:28:30.105Z,36.81
2023-03-29T09:29:30.162Z,36.99
2023-03-29T09:30:30.148Z,37.10
2023-03-29T09:31:30.257Z,37.19
2023-03-29T09:32:30.272Z,37.29
2023-03-29T09:33:30.219Z,37.29
2023-03-29T09:34:30.199Z,37.29
2023-03-29T09:35:30.262Z,37.29
2023-03-29T09:36:30.253Z,36.99
2023-03-29T09:37:30.262Z,36.99
2023-03-29T09:38:30.260Z,37.19
2023-03-29T09:39:30.240Z,36.98
2023-03-29T09:40:30.259Z,36.88
2023-03-29T09:41:30.332Z,37.18
2023-03-29T09:42:30.281Z,37.08
2023-03-29T09:43:30.288Z,36.98
2023-03-29T09:44:31.618Z,36.98
2023-03-29T09:45:30.294Z,36.98
2023-03-29T09:46:30.293Z,36.88
2023-03-29T09:47:30.328Z,36.88
2023-03-29T09:48:30.312Z,36.78
2023-03-29T09:49:30.301Z,36.68
2023-03-29T09:50:31.967Z,36.68
2023-03-29T09:51:30.310Z,36.46
2023-03-29T09:52:30.351Z,36.58
2023-03-29T09:53:30.328Z,36.56
2023-03-29T09:54:30.315Z,36.66
2023-03-29T09:55:30.348Z,36.76
2023-03-29T09:56:30.365Z,36.56
2023-03-29T09:57:30.497Z,36.36
2023-03-29T09:58:30.389Z,36.56
2023-03-29T09:59:30.421Z,36.46
2023-03-29T10:00:30.442Z,36.46
2023-03-29T10:01:30.513Z,36.36
2023-03-29T10:02:30.694Z,36.36
2023-03-29T10:03:30.514Z,36.36
2023-03-29T10:04:30.535Z,36.06
2023-03-29T10:05:30.550Z,36.06
2023-03-29T10:06:30.544Z,36.06
2023-03-29T10:07:30.521Z,36.26
2023-03-29T10:08:30.534Z,36.24
2023-03-29T10:09:30.526Z,36.06
2023-03-29T10:10:30.570Z,36.15
2023-03-29T10:11:30.556Z,36.15
2023-03-29T10:12:30.577Z,36.04
2023-03-29T10:13:30.671Z,35.94
2023-03-29T10:14:30.613Z,35.94
2023-03-29T10:15:30.874Z,35.94
2023-03-29T10:16:30.728Z,35.85
2023-03-29T10:17:30.634Z,35.85
2023-03-29T10:18:30.617Z,35.94
2023-03-29T10:19:30.657Z,35.85
2023-03-29T10:20:30.632Z,35.94
2023-03-29T10:21:30.671Z,35.94
2023-03-29T10:22:30.664Z,35.74
2023-03-29T10:23:30.697Z,35.85
2023-03-29T10:24:30.677Z,35.85
2023-03-29T10:25:30.713Z,35.85
2023-03-29T10:26:30.755Z,35.74
2023-03-29T10:27:30.750Z,35.74
2023-03-29T10:28:30.757Z,35.74
2023-03-29T10:29:30.808Z,35.64
2023-03-29T10:30:30.789Z,35.44
2023-03-29T10:31:30.859Z,35.53
2023-03-29T10:32:31.082Z,35.42
2023-03-29T10:33:30.870Z,35.42
2023-03-29T10:34:31.084Z,35.42
2023-03-29T10:35:30.950Z,35.33
2023-03-29T10:36:30.879Z,35.23
2023-03-29T10:37:30.872Z,35.23
2023-03-29T10:38:30.894Z,35.01
2023-03-29T10:39:30.894Z,34.83
2023-03-29T10:40:30.930Z,34.91
2023-03-29T10:41:30.879Z,35.01
2023-03-29T10:42:30.917Z,34.91
2023-03-29T10:43:30.975Z,34.71
2023-03-29T10:44:32.960Z,35.03
2023-03-29T10:45:31.018Z,34.93
2023-03-29T10:46:31.030Z,35.03
2023-03-29T10:47:31.039Z,35.03
2023-03-29T10:48:31.104Z,35.13
2023-03-29T10:49:31.050Z,34.93
2023-03-29T10:50:31.085Z,34.73
2023-03-29T10:51:31.132Z,34.83
2023-03-29T10:52:31.124Z,35.23
2023-03-29T10:53:31.107Z,35.23
2023-03-29T10:54:31.142Z,35.33
2023-03-29T10:55:31.161Z,35.23
2023-03-29T10:56:31.192Z,35.23
2023-03-29T10:57:31.243Z,35.33
2023-03-29T10:58:31.173Z,35.33
2023-03-29T10:59:31.207Z,35.33
2023-03-29T11:00:31.194Z,35.23
2023-03-29T11:01:31.261Z,35.13
2023-03-29T11:02:31.252Z,35.11
2023-03-29T11:03:31.313Z,35.11
2023-03-29T11:04:31.251Z,34.91
2023-03-29T11:05:31.286Z,34.91
2023-03-29T11:06:31.310Z,34.91
2023-03-29T11:07:31.284Z,35.21
2023-03-29T11:08:32.099Z,35.11
2023-03-29T11:09:31.329Z,35.11
2023-03-29T11:10:31.355Z,35.01
2023-03-29T11:11:31.385Z,35.11
2023-03-29T11:12:31.367Z,34.99
2023-03-29T11:13:31.375Z,34.99
2023-03-29T11:14:31.406Z,34.99
2023-03-29T11:15:31.468Z,34.99
2023-03-29T11:16:31.461Z,34.99
2023-03-29T11:17:31.522Z,35.10
2023-03-29T11:18:31.487Z,34.99
2023-03-29T11:19:31.512Z,34.89
2023-03-29T11:20:31.533Z,34.99
2023-03-29T11:21:31.587Z,34.99
2023-03-29T11:22:31.572Z,35.19
2023-03-29T11:23:31.560Z,35.10
2023-03-29T11:24:31.588Z,35.10
2023-03-29T11:25:31.579Z,35.19
2023-03-29T11:26:31.609Z,35.29
2023-03-29T11:27:31.589Z,35.10
2023-03-29T11:28:31.620Z,35.19
2023-03-29T11:29:31.605Z,35.10
2023-03-29T11:30:31.637Z,35.19
2023-03-29T11:31:31.675Z,35.19
2023-03-29T11:32:31.678Z,35.19
2023-03-29T11:33:31.680Z,35.19
2023-03-29T11:34:31.663Z,35.19
2023-03-29T11:35:31.684Z,35.29
2023-03-29T11:36:31.693Z,35.19
2023-03-29T11:37:31.669Z,35.10
2023-03-29T11:38:31.694Z,35.29
2023-03-29T11:39:31.684Z,35.29
2023-03-29T11:40:31.673Z,34.99
2023-03-29T11:41:31.665Z,35.10
2023-03-29T11:42:31.708Z,34.99
2023-03-29T11:43:31.702Z,35.10
2023-03-29T11:44:31.738Z,34.99
2023-03-29T11:45:31.770Z,35.10
2023-03-29T11:46:31.835Z,34.99
2023-03-29T11:47:31.884Z,34.98
2023-03-29T11:48:31.827Z,34.98
2023-03-29T11:49:31.891Z,35.08
2023-03-29T11:50:33.081Z,34.99
2023-03-29T11:51:31.894Z,34.99
2023-03-29T11:52:31.921Z,34.99
2023-03-29T11:53:31.915Z,34.78
2023-03-29T11:54:31.921Z,34.68
2023-03-29T11:55:31.897Z,34.89
2023-03-29T11:56:31.916Z,34.89
2023-03-29T11:57:31.983Z,34.89
2023-03-29T11:58:31.970Z,34.89
2023-03-29T11:59:31.959Z,34.89
2023-03-29T12:00:31.993Z,34.99
2023-03-29T12:01:32.011Z,34.89
2023-03-29T12:02:32.170Z,34.80
2023-03-29T12:03:32.205Z,34.89
2023-03-29T12:04:32.359Z,34.89
2023-03-29T12:05:32.124Z,34.89
2023-03-29T12:06:32.108Z,34.89
2023-03-29T12:07:32.102Z,34.89
2023-03-29T12:08:32.089Z,34.89
2023-03-29T12:09:32.112Z,34.89
2023-03-29T12:10:32.136Z,35.10
2023-03-29T12:11:32.156Z,34.89
2023-03-29T12:12:32.184Z,34.89
2023-03-29T12:13:32.230Z,34.88
2023-03-29T12:14:32.224Z,34.88
2023-03-29T12:15:32.259Z,34.68
2023-03-29T12:16:32.429Z,34.68
2023-03-29T12:17:32.267Z,34.58
2023-03-29T12:18:32.294Z,34.58
2023-03-29T12:19:32.282Z,34.46
2023-03-29T12:20:32.274Z,34.36
2023-03-29T12:21:32.327Z,34.66
2023-03-29T12:22:32.313Z,34.36
2023-03-29T12:23:32.316Z,34.36
2023-03-29T12:24:32.313Z,34.36
2023-03-29T12:25:32.302Z,34.46
2023-03-29T12:26:32.329Z,34.36
2023-03-29T12:27:32.374Z,34.46
2023-03-29T12:28:32.361Z,34.36
2023-03-29T12:29:32.348Z,34.45
2023-03-29T12:30:34.241Z,34.25
2023-03-29T12:31:32.385Z,34.15
2023-03-29T12:32:32.440Z,34.13
2023-03-29T12:33:32.426Z,34.03
2023-03-29T12:34:32.414Z,33.95
2023-03-29T12:35:32.418Z,34.05
2023-03-29T12:36:32.403Z,34.15
2023-03-29T12:37:32.470Z,34.25
2023-03-29T12:38:32.450Z,34.36
2023-03-29T12:39:32.448Z,34.56
2023-03-29T12:40:32.482Z,34.76
2023-03-29T12:41:32.534Z,34.64
2023-03-29T12:42:32.519Z,34.45
2023-03-29T12:43:32.565Z,34.45
2023-03-29T12:44:32.544Z,34.55
2023-03-29T12:45:32.585Z,34.56
2023-03-29T12:46:32.730Z,34.66
2023-03-29T12:47:32.675Z,34.66
2023-03-29T12:48:33.009Z,34.66
2023-03-29T12:49:32.625Z,34.76
2023-03-29T12:50:32.612Z,34.76
2023-03-29T12:51:32.656Z,34.86
2023-03-29T12:52:32.646Z,34.88
2023-03-29T12:53:32.700Z,34.98
2023-03-29T12:54:32.712Z,35.08